createdAt,value
2023-04-26T00:01:49.639Z,2.85
2023-04-26T00:03:51.276Z,2.10
2023-04-26T00:05:52.928Z,2.35
2023-04-26T00:07:54.672Z,4.25
2023-04-26T00:09:56.405Z,2.92
2023-04-26T00:11:57.854Z,2.25
2023-04-26T00:13:59.504Z,3.28
2023-04-26T00:16:00.946Z,3.20
2023-04-26T00:18:02.615Z,1.63
2023-04-26T00:20:06.914Z,2.75
2023-04-26T00:22:08.807Z,1.98
2023-04-26T00:24:10.464Z,2.58
2023-04-26T00:26:11.916Z,3.50
2023-04-26T00:28:13.328Z,2.47
2023-04-26T00:30:14.981Z,2.35
2023-04-26T00:32:16.427Z,3.15
2023-04-26T00:34:17.952Z,2.83
2023-04-26T00:36:19.488Z,2.40
2023-04-26T00:38:21.251Z,2.08
2023-04-26T00:40:22.654Z,3.15
2023-04-26T00:42:24.072Z,2.85
2023-04-26T00:44:25.678Z,1.67
2023-04-26T00:46:28.864Z,2.72
2023-04-26T00:48:30.693Z,3.92
2023-04-26T00:50:32.660Z,3.45
2023-04-26T00:52:34.123Z,3.05
2023-04-26T00:54:35.952Z,2.90
2023-04-26T00:56:39.102Z,1.75
2023-04-26T00:58:40.572Z,1.88
2023-04-26T01:00:42.042Z,2.55
2023-04-26T01:02:44.232Z,2.13
2023-04-26T01:04:46.090Z,2.55
2023-04-26T01:06:48.175Z,1.95
2023-04-26T01:08:56.756Z,3.08
2023-04-26T01:10:58.972Z,2.72
2023-04-26T01:13:01.698Z,3.35
2023-04-26T01:15:03.497Z,3.10
2023-04-26T01:17:06.055Z,1.98
2023-04-26T01:19:10.817Z,2.95
2023-04-26T01:21:20.949Z,3.05
2023-04-26T01:23:22.782Z,2.67
2023-04-26T01:25:24.472Z,2.92
2023-04-26T01:27:25.902Z,2.83
2023-04-26T01:29:27.512Z,2.88
2023-04-26T01:31:29.228Z,1.88
2023-04-26T01:33:30.761Z,2.15
2023-04-26T01:35:32.264Z,2.28
2023-04-26T01:37:33.662Z,2.53
2023-04-26T01:39:36.568Z,2.55
2023-04-26T01:41:38.031Z,2.35
2023-04-26T01:43:39.518Z,4.50
2023-04-26T01:45:41.404Z,1.90
2023-04-26T01:48:01.655Z,1.90
2023-04-26T01:50:08.894Z,2.90
2023-04-26T01:52:10.298Z,3.72
2023-04-26T01:54:11.779Z,1.67
2023-04-26T01:56:13.248Z,2.38
2023-04-26T01:58:14.960Z,2.40
2023-04-26T02:00:16.760Z,2.45
2023-04-26T02:02:18.907Z,3.97
2023-04-26T02:04:24.060Z,2.47
2023-04-26T02:06:26.407Z,2.35
2023-04-26T02:08:27.972Z,2.33
2023-04-26T02:10:29.365Z,2.63
2023-04-26T02:12:30.839Z,1.75
2023-04-26T02:14:32.356Z,1.98
2023-04-26T02:16:33.853Z,3.33
2023-04-26T02:18:35.439Z,3.92
2023-04-26T02:20:37.899Z,2.20
2023-04-26T02:22:39.439Z,2.75
2023-04-26T02:24:41.103Z,3.25
2023-04-26T02:26:42.687Z,1.50
2023-04-26T02:28:44.178Z,2.50
2023-04-26T02:30:45.772Z,1.92
2023-04-26T02:32:47.353Z,1.95
2023-04-26T02:34:48.842Z,2.45
2023-04-26T02:36:50.309Z,2.95
2023-04-26T02:38:52.182Z,2.00
2023-04-26T02:41:04.081Z,1.85
2023-04-26T02:43:06.197Z,2.50
2023-04-26T02:45:08.235Z,2.13
2023-04-26T02:47:09.833Z,2.17
2023-04-26T02:49:11.729Z,3.00
2023-04-26T02:51:13.936Z,1.92
2023-04-26T02:53:15.919Z,1.50
2023-04-26T02:55:17.495Z,2.03
2023-04-26T02:57:18.942Z,2.40
2023-04-26T02:59:20.364Z,2.60
2023-04-26T03:01:22.663Z,2.85
2023-04-26T03:03:24.553Z,2.63
2023-04-26T03:05:26.320Z,2.35
2023-04-26T03:07:27.736Z,1.77
2023-04-26T03:09:29.293Z,2.20
2023-04-26T03:11:30.804Z,1.90
2023-04-26T03:13:32.463Z,1.77
2023-04-26T03:15:34.284Z,2.70
2023-04-26T03:17:35.926Z,2.42
2023-04-26T03:19:37.783Z,1.55
2023-04-26T03:21:40.220Z,2.17
2023-04-26T03:23:41.679Z,4.10
2023-04-26T03:25:43.741Z,2.88
2023-04-26T03:27:45.451Z,2.90
2023-04-26T03:29:46.899Z,3.10
2023-04-26T03:31:48.531Z,1.98
2023-04-26T03:33:50.097Z,2.13
2023-04-26T03:35:51.594Z,1.58
2023-04-26T03:37:53.510Z,1.70
2023-04-26T03:39:55.850Z,2.28
2023-04-26T03:41:58.199Z,2.85
2023-04-26T03:43:59.598Z,1.80
2023-04-26T03:46:01.125Z,2.50
2023-04-26T03:48:02.695Z,2.00
2023-04-26T03:50:04.629Z,3.28
2023-04-26T03:52:06.152Z,2.05
2023-04-26T03:54:07.587Z,3.33
2023-04-26T03:56:09.002Z,1.85
2023-04-26T03:58:12.525Z,3.15
2023-04-26T04:00:14.914Z,2.78
2023-04-26T04:02:19.115Z,2.70
2023-04-26T04:04:21.027Z,2.58
2023-04-26T04:06:22.772Z,2.65
2023-04-26T04:08:24.878Z,2.20
2023-04-26T04:10:26.447Z,1.85
2023-04-26T04:12:29.064Z,1.90
2023-04-26T04:14:30.562Z,2.40
2023-04-26T04:16:32.281Z,1.65
2023-04-26T04:18:33.774Z,1.98
2023-04-26T04:20:35.482Z,2.55
2023-04-26T04:22:39.010Z,2.40
2023-04-26T04:24:40.911Z,3.45
2023-04-26T04:26:42.559Z,1.98
2023-04-26T04:28:45.499Z,2.15
2023-04-26T04:30:47.250Z,1.80
2023-04-26T04:32:48.923Z,2.17
2023-04-26T04:34:53.840Z,1.70
2023-04-26T04:36:55.330Z,2.38
2023-04-26T04:38:57.318Z,2.45
2023-04-26T04:40:58.927Z,1.90
2023-04-26T04:43:03.279Z,2.00
2023-04-26T04:45:07.196Z,2.65
2023-04-26T04:47:10.729Z,2.90
2023-04-26T04:49:12.933Z,3.20
2023-04-26T04:51:14.669Z,3.00
2023-04-26T04:53:16.250Z,2.88
2023-04-26T04:55:17.812Z,3.65
2023-04-26T04:57:20.254Z,3.58
2023-04-26T04:59:22.878Z,2.17
2023-04-26T05:01:24.396Z,5.72
2023-04-26T05:03:29.490Z,3.13
2023-04-26T05:05:31.398Z,2.40
2023-04-26T05:07:33.459Z,2.92
2023-04-26T05:09:37.115Z,2.28
2023-04-26T05:11:39.920Z,3.83
2023-04-26T05:13:43.959Z,2.28
2023-04-26T05:15:45.675Z,2.03
2023-04-26T05:17:47.715Z,3.35
2023-04-26T05:19:55.945Z,2.60
2023-04-26T05:21:57.861Z,2.95
2023-04-26T05:23:59.408Z,2.05
2023-04-26T05:26:05.037Z,3.35
2023-04-26T05:28:25.361Z,5.05
2023-04-26T05:30:46.322Z,4.90
2023-04-26T05:33:00.397Z,4.07
2023-04-26T05:35:10.465Z,2.63
2023-04-26T05:37:11.969Z,3.83
2023-04-26T05:39:13.402Z,3.10
2023-04-26T05:41:14.849Z,6.47
2023-04-26T05:43:16.836Z,4.50
2023-04-26T05:45:18.478Z,2.72
2023-04-26T05:47:20.209Z,2.72
2023-04-26T05:49:22.068Z,2.65
2023-04-26T05:51:23.942Z,3.33
2023-04-26T05:53:25.856Z,2.92
2023-04-26T05:55:27.321Z,3.30
2023-04-26T05:57:28.935Z,3.65
2023-04-26T05:59:32.936Z,3.20
2023-04-26T06:01:34.533Z,3.35
2023-04-26T06:03:37.539Z,3.70
2023-04-26T06:05:41.285Z,3.75
2023-04-26T06:07:44.050Z,2.95
2023-04-26T06:09:45.685Z,3.05
2023-04-26T06:11:47.343Z,2.85
2023-04-26T06:13:49.266Z,3.35
2023-04-26T06:15:52.961Z,2.53
2023-04-26T06:17:54.564Z,2.15
2023-04-26T06:19:56.304Z,2.50
2023-04-26T06:21:57.826Z,3.13
2023-04-26T06:23:59.821Z,2.85
2023-04-26T06:26:03.106Z,3.35
2023-04-26T06:28:04.752Z,3.20
2023-04-26T06:30:07.819Z,2.75
2023-04-26T06:32:11.705Z,2.80
2023-04-26T06:34:14.403Z,3.28
2023-04-26T06:36:16.739Z,3.35
2023-04-26T06:38:18.322Z,2.70
2023-04-26T06:40:19.861Z,4.45
2023-04-26T06:42:22.364Z,3.40
2023-04-26T06:44:55.972Z,3.50
2023-04-26T06:46:58.068Z,2.38
2023-04-26T06:49:01.582Z,3.40
2023-04-26T06:51:06.993Z,3.00
2023-04-26T06:53:08.485Z,2.08
2023-04-26T06:55:10.393Z,1.95
2023-04-26T06:57:11.871Z,3.05
2023-04-26T06:59:13.282Z,3.08
2023-04-26T07:01:14.791Z,3.38
2023-04-26T07:03:16.817Z,4.38
2023-04-26T07:05:18.513Z,3.30
2023-04-26T07:07:20.557Z,3.55
2023-04-26T07:09:22.818Z,2.08
2023-04-26T07:11:25.929Z,3.17
2023-04-26T07:13:27.783Z,2.00
2023-04-26T07:15:29.318Z,2.05
2023-04-26T07:17:30.796Z,3.15
2023-04-26T07:19:32.658Z,3.13
2023-04-26T07:21:34.338Z,3.70
2023-04-26T07:23:36.495Z,1.83
2023-04-26T07:25:37.962Z,4.00
2023-04-26T07:27:39.462Z,2.38
2023-04-26T07:29:40.934Z,1.35
2023-04-26T07:31:42.834Z,3.28
2023-04-26T07:33:44.482Z,2.17
2023-04-26T07:35:53.942Z,3.15
2023-04-26T07:37:55.696Z,2.22
2023-04-26T07:39:57.107Z,2.63
2023-04-26T07:41:58.530Z,2.03
2023-04-26T07:44:00.003Z,2.28
2023-04-26T07:46:02.166Z,2.83
2023-04-26T07:48:03.883Z,3.83
2023-04-26T07:50:05.986Z,2.95
2023-04-26T07:52:08.720Z,2.20
2023-04-26T07:54:11.290Z,4.00
2023-04-26T07:56:12.783Z,2.70
2023-04-26T07:58:14.606Z,1.85
2023-04-26T08:00:17.149Z,1.73
2023-04-26T08:02:20.259Z,2.22
2023-04-26T08:04:34.956Z,1.95
2023-04-26T08:06:38.796Z,2.53
2023-04-26T08:08:44.741Z,2.70
2023-04-26T08:10:46.433Z,2.55
2023-04-26T08:12:48.286Z,2.28
2023-04-26T08:14:50.404Z,3.47
2023-04-26T08:16:52.053Z,2.38
2023-04-26T08:18:54.673Z,2.28
2023-04-26T08:20:56.081Z,2.42
2023-04-26T08:22:57.775Z,1.75
2023-04-26T08:24:59.475Z,2.53
2023-04-26T08:27:01.055Z,2.38
2023-04-26T08:29:02.532Z,2.10
2023-04-26T08:31:04.718Z,1.30
2023-04-26T08:33:06.916Z,1.50
2023-04-26T08:35:09.895Z,2.15
2023-04-26T08:37:11.894Z,2.30
2023-04-26T08:39:13.548Z,2.20
2023-04-26T08:41:21.493Z,1.50
2023-04-26T08:43:23.146Z,1.70
2023-04-26T08:45:25.077Z,1.50
2023-04-26T08:47:37.657Z,1.55
2023-04-26T08:49:44.677Z,1.65
2023-04-26T08:51:47.471Z,2.22
2023-04-26T08:53:53.180Z,2.40
2023-04-26T08:55:55.488Z,1.73
2023-04-26T08:57:57.270Z,1.45
2023-04-26T08:59:58.819Z,1.42
2023-04-26T09:02:03.222Z,1.70
2023-04-26T09:04:05.608Z,4.70
2023-04-26T09:06:07.593Z,2.83
2023-04-26T09:08:09.641Z,2.17
2023-04-26T09:10:12.634Z,1.58
2023-04-26T09:12:17.773Z,2.40
2023-04-26T09:14:19.270Z,1.75
2023-04-26T09:16:20.965Z,3.05
2023-04-26T09:18:23.607Z,1.73
2023-04-26T09:20:27.603Z,3.03
2023-04-26T09:22:36.071Z,1.20
2023-04-26T09:24:53.158Z,1.17
2023-04-26T09:27:03.884Z,1.70
2023-04-26T09:29:15.929Z,2.03
2023-04-26T09:31:41.879Z,2.28
2023-04-26T09:33:58.836Z,2.25
2023-04-26T09:36:12.990Z,1.23
2023-04-26T09:38:16.531Z,1.25
2023-04-26T09:40:19.928Z,1.35
2023-04-26T09:42:21.527Z,2.00
2023-04-26T09:44:24.377Z,1.05
2023-04-26T09:46:26.089Z,1.98
2023-04-26T09:48:34.394Z,1.67
2023-04-26T09:50:35.922Z,1.10
2023-04-26T09:52:44.428Z,1.33
2023-04-26T09:54:53.498Z,2.50
2023-04-26T09:57:01.684Z,2.47
2023-04-26T09:59:05.553Z,2.70
2023-04-26T10:01:08.545Z,1.85
2023-04-26T10:03:10.558Z,2.38
2023-04-26T10:05:12.870Z,3.95
2023-04-26T10:07:16.126Z,5.18
2023-04-26T10:09:18.341Z,5.85
2023-04-26T10:11:21.302Z,5.18
2023-04-26T10:13:22.920Z,5.97
2023-04-26T10:15:24.403Z,8.40
2023-04-26T10:17:25.870Z,13.45
2023-04-26T10:19:27.489Z,10.48
2023-04-26T10:21:35.224Z,14.15
2023-04-26T10:23:37.372Z,14.98
2023-04-26T10:25:41.951Z,17.70
2023-04-26T10:27:43.359Z,12.93
2023-04-26T10:30:09.263Z,11.20
2023-04-26T10:32:12.293Z,12.15
2023-04-26T10:34:21.520Z,15.40
2023-04-26T10:36:23.078Z,14.27
2023-04-26T10:38:24.557Z,18.77
2023-04-26T10:40:39.077Z,16.85
2023-04-26T10:42:41.583Z,12.80
2023-04-26T10:44:45.737Z,12.40
2023-04-26T10:46:51.637Z,12.43
2023-04-26T10:48:53.360Z,11.60
2023-04-26T10:51:13.297Z,8.23
2023-04-26T10:53:14.817Z,9.02
2023-04-26T10:55:40.363Z,10.93
2023-04-26T10:57:50.723Z,8.75
2023-04-26T11:00:17.076Z,8.85
2023-04-26T11:02:58.081Z,7.28
2023-04-26T11:05:00.640Z,6.22
2023-04-26T11:07:03.490Z,8.32
2023-04-26T11:09:36.173Z,5.25
2023-04-26T11:11:52.134Z,4.60
2023-04-26T11:13:53.683Z,4.82
2023-04-26T11:16:02.760Z,4.78
2023-04-26T11:18:05.243Z,4.82
2023-04-26T11:20:10.382Z,4.55
2023-04-26T11:22:12.392Z,4.05
2023-04-26T11:24:16.969Z,4.53
2023-04-26T11:26:18.413Z,4.65
2023-04-26T11:28:19.870Z,3.17
2023-04-26T11:30:21.301Z,2.33
2023-04-26T11:32:22.733Z,3.78
2023-04-26T11:34:34.322Z,1.80
2023-04-26T11:36:37.975Z,3.83
2023-04-26T11:38:39.502Z,2.08
2023-04-26T11:40:41.758Z,3.75
2023-04-26T11:42:46.311Z,3.03
2023-04-26T11:44:51.680Z,2.42
2023-04-26T11:46:53.307Z,2.42
2023-04-26T11:49:06.175Z,2.97
2023-04-26T11:51:08.821Z,2.60
2023-04-26T11:53:10.427Z,2.15
2023-04-26T11:55:12.648Z,2.20
2023-04-26T11:57:17.213Z,3.78
2023-04-26T11:59:26.689Z,3.20
2023-04-26T12:01:29.472Z,2.58
2023-04-26T12:03:33.464Z,2.83
2023-04-26T12:05:35.313Z,1.85
2023-04-26T12:07:37.875Z,1.92
2023-04-26T12:09:42.572Z,1.25
2023-04-26T12:12:11.221Z,2.28
2023-04-26T12:14:16.164Z,1.25
2023-04-26T12:18:28.375Z,1.55
2023-04-26T12:20:32.298Z,1.88
2023-04-26T12:22:33.730Z,3.35
2023-04-26T12:24:38.515Z,2.78
2023-04-26T12:26:45.826Z,2.05
2023-04-26T12:28:47.296Z,1.70
2023-04-26T12:30:49.573Z,2.05
2023-04-26T12:32:51.265Z,2.22
2023-04-26T12:34:53.187Z,3.13
2023-04-26T12:36:55.014Z,2.25
2023-04-26T12:38:57.735Z,1.92
2023-04-26T12:40:59.169Z,1.80
2023-04-26T12:43:00.692Z,2.53
2023-04-26T12:45:02.280Z,2.88
2023-04-26T12:47:03.896Z,3.33
2023-04-26T12:49:05.412Z,1.88
2023-04-26T12:51:07.204Z,1.90
2023-04-26T12:53:10.915Z,2.88
2023-04-26T12:55:13.979Z,2.63
2023-04-26T12:57:15.683Z,3.35
2023-04-26T12:59:17.257Z,2.38
2023-04-26T13:01:18.727Z,2.60
2023-04-26T13:03:20.321Z,3.38
2023-04-26T13:05:24.605Z,1.88
2023-04-26T13:07:26.370Z,2.38
2023-04-26T13:09:28.382Z,2.22
2023-04-26T13:11:29.916Z,3.08
2023-04-26T13:13:42.222Z,1.45
2023-04-26T13:15:45.485Z,3.03
2023-04-26T13:17:47.109Z,2.60
2023-04-26T13:19:48.546Z,3.13
2023-04-26T13:21:50.089Z,3.55
2023-04-26T13:23:51.502Z,2.95
2023-04-26T13:25:53.105Z,2.65
2023-04-26T13:27:55.364Z,2.00
2023-04-26T13:29:57.021Z,2.85
2023-04-26T13:31:59.253Z,2.70
2023-04-26T13:34:00.926Z,2.05
2023-04-26T13:36:02.388Z,3.00
2023-04-26T13:38:03.991Z,2.08
2023-04-26T13:40:06.218Z,2.67
2023-04-26T13:42:07.948Z,3.22
2023-04-26T13:44:09.395Z,1.60
2023-04-26T13:46:29.459Z,2.13
2023-04-26T13:48:31.071Z,3.42
2023-04-26T13:50:32.596Z,2.90
2023-04-26T13:52:34.070Z,3.03
2023-04-26T13:54:36.724Z,2.78
2023-04-26T13:56:38.525Z,1.60
2023-04-26T13:58:43.275Z,2.45
2023-04-26T14:00:44.742Z,3.05
2023-04-26T14:02:46.392Z,2.83
2023-04-26T14:04:48.135Z,1.95
2023-04-26T14:06:50.026Z,2.83
2023-04-26T14:08:51.811Z,3.45
2023-04-26T14:10:53.792Z,1.55
2023-04-26T14:12:56.312Z,3.70
2023-04-26T14:14:57.755Z,2.95
2023-04-26T14:16:59.252Z,2.55
2023-04-26T14:19:01.959Z,2.90
2023-04-26T14:21:04.177Z,1.92
2023-04-26T14:23:05.825Z,1.92
2023-04-26T14:25:07.791Z,3.45
2023-04-26T14:27:09.212Z,2.20
2023-04-26T14:29:10.903Z,3.50
2023-04-26T14:31:12.833Z,3.70
2023-04-26T14:33:14.305Z,3.67
2023-04-26T14:35:15.993Z,2.75
2023-04-26T14:37:22.220Z,3.00
2023-04-26T14:39:24.854Z,1.90
2023-04-26T14:41:26.353Z,3.00
2023-04-26T14:43:27.808Z,1.98
2023-04-26T14:45:43.297Z,2.70
2023-04-26T14:47:46.360Z,3.13
2023-04-26T14:49:47.794Z,1.50
2023-04-26T14:51:51.246Z,3.67
2023-04-26T14:53:54.042Z,4.82
2023-04-26T14:55:58.882Z,1.88
2023-04-26T14:58:00.500Z,1.77
2023-04-26T15:00:08.944Z,1.55
2023-04-26T15:02:10.384Z,2.45
2023-04-26T15:04:12.241Z,2.05
2023-04-26T15:06:13.892Z,3.08
2023-04-26T15:08:15.520Z,2.97
2023-04-26T15:10:17.109Z,3.55
2023-04-26T15:12:18.500Z,4.35
2023-04-26T15:14:20.336Z,2.97
2023-04-26T15:16:21.942Z,3.33
2023-04-26T15:18:23.479Z,1.75
2023-04-26T15:20:24.981Z,2.25
2023-04-26T15:22:26.432Z,2.92
2023-04-26T15:24:27.868Z,2.42
2023-04-26T15:26:30.994Z,2.63
2023-04-26T15:28:32.920Z,3.20
2023-04-26T15:30:34.369Z,3.05
2023-04-26T15:32:36.018Z,3.75
2023-04-26T15:34:45.149Z,2.05
2023-04-26T15:36:47.015Z,2.40
2023-04-26T15:38:49.502Z,1.75
2023-04-26T15:40:51.150Z,2.28
2023-04-26T15:42:52.653Z,2.10
2023-04-26T15:44:54.205Z,2.50
2023-04-26T15:46:55.802Z,3.85
2023-04-26T15:48:57.285Z,2.22
2023-04-26T15:50:58.782Z,1.50
2023-04-26T15:53:00.252Z,1.92
2023-04-26T15:55:02.642Z,2.97
2023-04-26T15:57:04.232Z,2.45
2023-04-26T15:59:05.714Z,1.85
2023-04-26T16:01:07.879Z,2.08
2023-04-26T16:03:09.868Z,1.77
2023-04-26T16:05:12.018Z,2.25
2023-04-26T16:07:14.466Z,2.88
2023-04-26T16:09:25.173Z,2.47
2023-04-26T16:11:27.409Z,2.17
2023-04-26T16:13:29.826Z,3.05
2023-04-26T16:15:31.594Z,3.60
2023-04-26T16:17:33.044Z,3.85
2023-04-26T16:19:34.595Z,2.97
2023-04-26T16:21:36.360Z,4.88
2023-04-26T16:23:38.143Z,2.92
2023-04-26T16:25:40.105Z,2.67
2023-04-26T16:27:41.787Z,2.97
2023-04-26T16:29:44.327Z,2.30
2023-04-26T16:31:45.929Z,2.53
2023-04-26T16:33:47.464Z,4.07
2023-04-26T16:35:52.608Z,4.43
2023-04-26T16:37:54.037Z,3.08
2023-04-26T16:39:58.208Z,3.13
2023-04-26T16:41:59.708Z,2.20
2023-04-26T16:44:01.156Z,2.83
2023-04-26T16:46:04.410Z,5.03
2023-04-26T16:48:06.416Z,2.92
2023-04-26T16:50:08.249Z,3.38
2023-04-26T16:52:09.699Z,3.03
2023-04-26T16:54:11.361Z,4.35
2023-04-26T16:56:12.739Z,3.80
2023-04-26T16:58:14.350Z,3.88
2023-04-26T17:00:16.556Z,3.97
2023-04-26T17:02:18.376Z,2.92
2023-04-26T17:04:20.046Z,2.15
2023-04-26T17:06:21.575Z,3.47
2023-04-26T17:08:23.072Z,1.65
2023-04-26T17:10:26.033Z,3.67
2023-04-26T17:12:27.532Z,4.55
2023-04-26T17:14:28.977Z,3.90
2023-04-26T17:16:30.432Z,1.38
2023-04-26T17:18:31.914Z,2.92
2023-04-26T17:20:34.396Z,2.10
2023-04-26T17:22:36.689Z,3.75
2023-04-26T17:24:38.290Z,2.95
2023-04-26T17:26:40.048Z,3.35
2023-04-26T17:28:41.499Z,1.83
2023-04-26T17:30:43.416Z,1.73
2023-04-26T17:32:45.614Z,2.42
2023-04-26T17:34:47.069Z,2.17
2023-04-26T17:36:48.579Z,2.40
2023-04-26T17:38:50.087Z,2.58
2023-04-26T17:40:53.482Z,2.80
2023-04-26T17:42:55.097Z,3.47
2023-04-26T17:44:56.568Z,3.28
2023-04-26T17:46:57.999Z,3.58
2023-04-26T17:48:59.724Z,3.85
2023-04-26T17:51:01.289Z,1.92
2023-04-26T17:53:04.648Z,2.22
2023-04-26T17:55:09.862Z,2.90
2023-04-26T17:57:11.665Z,2.88
2023-04-26T17:59:13.140Z,3.15
2023-04-26T18:01:14.731Z,3.78
2023-04-26T18:03:16.603Z,5.82
2023-04-26T18:05:18.331Z,3.08
2023-04-26T18:07:19.841Z,3.10
2023-04-26T18:09:24.174Z,3.70
2023-04-26T18:11:26.079Z,3.35
2023-04-26T18:13:28.171Z,5.60
2023-04-26T18:15:29.722Z,4.85
2023-04-26T18:17:31.254Z,4.82
2023-04-26T18:19:32.772Z,5.40
2023-04-26T18:21:34.613Z,3.97
2023-04-26T18:23:36.272Z,3.03
2023-04-26T18:25:37.667Z,4.20
2023-04-26T18:27:39.083Z,4.43
2023-04-26T18:29:40.972Z,4.97
2023-04-26T18:31:42.771Z,3.45
2023-04-26T18:33:45.288Z,2.88
2023-04-26T18:35:48.808Z,3.75
2023-04-26T18:37:50.588Z,3.80
2023-04-26T18:39:52.069Z,4.75
2023-04-26T18:41:53.717Z,3.97
2023-04-26T18:43:55.320Z,3.20
2023-04-26T18:45:56.780Z,3.33
2023-04-26T18:47:58.257Z,2.97
2023-04-26T18:49:59.714Z,5.07
2023-04-26T18:52:01.636Z,3.28
2023-04-26T18:54:03.221Z,2.80
2023-04-26T18:56:05.125Z,5.53
2023-04-26T18:58:06.556Z,3.25
2023-04-26T19:00:08.662Z,3.30
2023-04-26T19:02:10.245Z,4.88
2023-04-26T19:04:11.966Z,2.40
2023-04-26T19:06:16.824Z,4.57
2023-04-26T19:08:18.353Z,4.80
2023-04-26T19:10:21.221Z,5.07
2023-04-26T19:12:22.734Z,4.70
2023-04-26T19:14:24.278Z,3.65
2023-04-26T19:16:25.978Z,2.17
2023-04-26T19:18:27.532Z,4.15
2023-04-26T19:20:29.482Z,4.32
2023-04-26T19:22:31.063Z,6.95
2023-04-26T19:24:32.679Z,11.90
2023-04-26T19:26:34.183Z,14.15
2023-04-26T19:28:37.496Z,13.52
2023-04-26T19:30:39.542Z,16.25
2023-04-26T19:32:41.148Z,18.02
2023-04-26T19:34:42.624Z,15.88
2023-04-26T19:36:44.136Z,13.27
2023-04-26T19:38:45.771Z,9.35
2023-04-26T19:40:47.391Z,6.53
2023-04-26T19:42:48.845Z,4.40
2023-04-26T19:44:50.898Z,4.28
2023-04-26T19:46:52.422Z,3.00
2023-04-26T19:48:53.963Z,2.53
2023-04-26T19:50:55.441Z,3.10
2023-04-26T19:52:56.866Z,2.08
2023-04-26T19:54:58.323Z,2.22
2023-04-26T19:56:59.808Z,3.25
2023-04-26T19:59:01.260Z,3.17
2023-04-26T20:01:03.684Z,3.10
2023-04-26T20:03:05.560Z,2.33
2023-04-26T20:05:08.011Z,3.30
2023-04-26T20:07:10.004Z,2.83
2023-04-26T20:09:12.129Z,3.80
2023-04-26T20:11:17.449Z,2.47
2023-04-26T20:13:18.988Z,2.47
2023-04-26T20:15:20.438Z,3.22
2023-04-26T20:17:21.919Z,2.90
2023-04-26T20:19:23.460Z,2.72
2023-04-26T20:21:26.609Z,4.82
2023-04-26T20:23:29.314Z,3.45
2023-04-26T20:25:30.777Z,2.45
2023-04-26T20:27:32.545Z,2.00
2023-04-26T20:29:34.024Z,3.58
2023-04-26T20:31:35.467Z,3.55
2023-04-26T20:33:37.370Z,3.78
2023-04-26T20:35:38.935Z,3.25
2023-04-26T20:37:40.635Z,5.15
2023-04-26T20:39:42.741Z,5.15
2023-04-26T20:41:44.310Z,4.15
2023-04-26T20:43:45.979Z,4.32
2023-04-26T20:45:47.563Z,2.53
2023-04-26T20:47:49.017Z,7.65
2023-04-26T20:49:50.496Z,24.52
2023-04-26T20:51:51.908Z,26.20
2023-04-26T20:53:53.333Z,24.85
2023-04-26T20:55:54.732Z,18.02
2023-04-26T20:57:56.172Z,11.90
2023-04-26T20:59:57.647Z,9.20
2023-04-26T21:01:59.159Z,4.65
2023-04-26T21:04:01.308Z,3.75
2023-04-26T21:06:03.274Z,4.25
2023-04-26T21:08:04.988Z,2.38
2023-04-26T21:10:06.905Z,3.88
2023-04-26T21:12:08.431Z,4.63
2023-04-26T21:14:09.973Z,2.72
2023-04-26T21:16:11.501Z,2.40
2023-04-26T21:18:12.985Z,4.28
2023-04-26T21:20:15.159Z,3.33
2023-04-26T21:22:16.829Z,4.35
2023-04-26T21:24:18.364Z,2.92
2023-04-26T21:26:19.832Z,3.35
2023-04-26T21:28:21.667Z,3.28
2023-04-26T21:30:23.112Z,4.65
2023-04-26T21:32:24.602Z,2.63
2023-04-26T21:34:26.115Z,4.22
2023-04-26T21:36:28.010Z,4.63
2023-04-26T21:38:29.433Z,4.07
2023-04-26T21:40:30.823Z,3.40
2023-04-26T21:42:32.296Z,3.63
2023-04-26T21:44:33.832Z,3.53
2023-04-26T21:46:35.331Z,2.92
2023-04-26T21:48:38.700Z,4.53
2023-04-26T21:50:40.184Z,2.78
2023-04-26T21:52:41.609Z,4.95
2023-04-26T21:54:43.036Z,3.28
2023-04-26T21:56:44.541Z,3.85
2023-04-26T21:58:46.273Z,4.18
2023-04-26T22:00:48.327Z,4.15
2023-04-26T22:02:51.349Z,6.38
2023-04-26T22:04:54.670Z,3.70
2023-04-26T22:06:56.105Z,4.15
2023-04-26T22:08:57.508Z,3.55
2023-04-26T22:10:59.928Z,3.15
2023-04-26T22:13:01.662Z,2.97
2023-04-26T22:15:03.154Z,2.70
2023-04-26T22:17:04.574Z,4.38
2023-04-26T22:19:06.250Z,3.97
2023-04-26T22:21:07.754Z,5.00
2023-04-26T22:23:09.973Z,3.53
2023-04-26T22:25:11.432Z,3.28
2023-04-26T22:27:12.813Z,4.15
2023-04-26T22:29:14.256Z,2.63
2023-04-26T22:31:15.950Z,3.45
2023-04-26T22:33:17.652Z,3.47
2023-04-26T22:35:20.071Z,3.42
2023-04-26T22:37:21.837Z,3.75
2023-04-26T22:39:23.326Z,2.85
2023-04-26T22:41:24.939Z,3.67
2023-04-26T22:43:26.588Z,2.92
2023-04-26T22:45:28.045Z,2.85
2023-04-26T22:47:29.559Z,3.25
2023-04-26T22:49:31.091Z,3.72
2023-04-26T22:51:32.517Z,6.35
2023-04-26T22:53:34.012Z,2.63
2023-04-26T22:55:35.845Z,3.05
2023-04-26T22:57:37.521Z,4.88
2023-04-26T22:59:38.975Z,4.43
2023-04-26T23:01:40.430Z,4.40
2023-04-26T23:03:42.032Z,3.17
2023-04-26T23:05:43.504Z,3.65
2023-04-26T23:07:45.551Z,3.28
2023-04-26T23:09:47.429Z,2.95
2023-04-26T23:11:48.855Z,4.43
2023-04-26T23:13:52.436Z,3.95
2023-04-26T23:15:53.884Z,3.20
2023-04-26T23:17:55.339Z,4.57
2023-04-26T23:19:56.845Z,2.88
2023-04-26T23:21:58.285Z,3.38
2023-04-26T23:23:59.961Z,3.67
2023-04-26T23:26:05.085Z,3.28
2023-04-26T23:28:08.776Z,4.57
2023-04-26T23:30:10.752Z,4.28
2023-04-26T23:32:12.726Z,4.18
2023-04-26T23:34:14.187Z,3.13
2023-04-26T23:36:15.864Z,3.58
2023-04-26T23:38:17.334Z,2.90
2023-04-26T23:40:19.024Z,4.45
2023-04-26T23:42:20.738Z,3.30
2023-04-26T23:44:22.194Z,3.10
2023-04-26T23:46:23.613Z,3.90
2023-04-26T23:48:25.033Z,4.55
2023-04-26T23:50:26.725Z,2.30
2023-04-26T23:52:28.184Z,3.38
2023-04-26T23:54:29.689Z,5.28
2023-04-26T23:56:31.532Z,2.88
2023-04-26T23:58:33.061Z,4.32
